Eendracht — PDVN — position and weather

sailwx.info

Track history (hours):
 
Tides and Currents Weather Stations Pressure Air Temp Water Temp Dewpoint Dewpoint Depression Visibility Wind Speed Wind Dir Waves Ship Positions

Eendracht (Netherlands)

Last reported at 2017-Sep-22 01:59 UTC. Time now 2017-Sep-23 03:50 UTC.
Position N 52°28' E 004°35'.

Length 59 m; beam 12 m; draft 5 m.

Type: Sailing vessel. MMSI: 244543000.

Date/timePositionNaut miles runAvg speedWind from/ knotsBaromVisibWave heightAir tempDewpointWater temp
2017-Sep-22 01:59N 52°28' E 004°35'0 0.0
2017-Sep-22 01:29N 52°28' E 004°35'0 0.0
2017-Sep-22 00:59N 52°28' E 004°35'0 0.0
2017-Sep-22 00:29N 52°28' E 004°35'0 0.0
2017-Sep-21 23:59N 52°28' E 004°35'0 0.0
2017-Sep-21 23:29N 52°28' E 004°35'0 0.0
2017-Sep-21 22:58N 52°28' E 004°35'0 0.0
2017-Sep-21 22:30N 52°28' E 004°35'0 0.0
2017-Sep-21 21:59N 52°28' E 004°35'0 0.0
2017-Sep-21 21:29N 52°28' E 004°35'0 0.0
2017-Sep-21 20:56N 52°28' E 004°35'0 0.0
2017-Sep-21 20:29N 52°28' E 004°35'0 0.0
2017-Sep-21 20:01N 52°28' E 004°35'0 0.0
2017-Sep-21 19:28N 52°28' E 004°35'0 0.0
2017-Sep-21 18:58N 52°28' E 004°35'0 0.0
2017-Sep-21 18:28N 52°28' E 004°35'0 0.0
2017-Sep-21 17:58N 52°28' E 004°35'0 0.0
2017-Sep-21 17:28N 52°28' E 004°35'0 0.0
2017-Sep-21 17:01N 52°28' E 004°35'0 0.0
2017-Sep-21 16:30N 52°28' E 004°35'0 0.0
2017-Sep-21 16:00N 52°28' E 004°35'0 0.0
2017-Sep-21 15:30N 52°28' E 004°35'0 0.0
2017-Sep-21 15:00N 52°28' E 004°35'0 0.0
2017-Sep-21 14:30N 52°28' E 004°35'0 0.5
2017-Sep-21 14:00N 52°28' E 004°35'3 5.6
2017-Sep-21 13:30N 52°28' E 004°30'3 5.1
2017-Sep-21 13:00N 52°26' E 004°28'3 5.8
2017-Sep-21 12:30N 52°23' E 004°26'3 5.4
2017-Sep-21 12:00N 52°21' E 004°24'3 5.3
2017-Sep-21 11:30N 52°19' E 004°22'3 5.4
2017-Sep-21 11:00N 52°16' E 004°20'3 5.7
2017-Sep-21 10:30N 52°13' E 004°18'3 5.4
2017-Sep-21 10:00N 52°11' E 004°17'3 5.2
2017-Sep-21 09:30N 52°08' E 004°16'2 4.8
2017-Sep-21 09:00N 52°06' E 004°16'0 0.1
2017-Sep-21 08:29N 52°06' E 004°16'0 0.0
2017-Sep-21 07:59N 52°06' E 004°16'0 0.0
2017-Sep-21 07:29N 52°06' E 004°16'0 0.0
2017-Sep-21 06:59N 52°06' E 004°16'0 0.0
2017-Sep-21 06:29N 52°06' E 004°16'0 0.0
2017-Sep-21 05:59N 52°06' E 004°16'0 0.0
2017-Sep-21 05:29N 52°06' E 004°16'0 0.0
2017-Sep-21 04:59N 52°06' E 004°16'0 0.0
2017-Sep-21 04:29N 52°06' E 004°16'0 0.0
2017-Sep-21 03:59N 52°06' E 004°16'0 0.0
2017-Sep-21 03:29N 52°06' E 004°16'0 0.0
2017-Sep-21 02:59N 52°06' E 004°16'0 0.0
2017-Sep-21 02:29N 52°06' E 004°16'0 0.0
2017-Sep-21 01:59N 52°06' E 004°16'0 0.0
2017-Sep-21 01:29N 52°06' E 004°16'0 0.0
2017-Sep-21 01:00N 52°06' E 004°16'1 1.2
2017-Sep-21 00:31N 52°06' E 004°15'2 4.3
2017-Sep-21 00:00N 52°06' E 004°12'3 6.0
2017-Sep-20 23:30N 52°04' E 004°08'3 5.5
2017-Sep-20 23:00N 52°02' E 004°05'3 5.4
2017-Sep-20 22:30N 51°60' E 004°03'4 7.7
2017-Sep-20 22:00N 51°58' E 004°08'4 8.0
2017-Sep-20 21:30N 51°56' E 004°13'4 7.4
2017-Sep-20 21:01N 51°54' E 004°18'3 5.7
2017-Sep-20 20:31N 51°54' E 004°23'3 6.3
2017-Sep-20 20:01N 51°54' E 004°28'1 1.1
2017-Sep-20 19:29N 51°54' E 004°29'0 0.0
2017-Sep-20 18:59N 51°54' E 004°29'0 0.0
2017-Sep-20 18:29N 51°54' E 004°29'0 0.0
2017-Sep-20 17:59N 51°54' E 004°29'0 0.0
2017-Sep-20 17:29N 51°54' E 004°29'0 0.0
2017-Sep-20 16:59N 51°54' E 004°29'0 0.0
2017-Sep-20 16:29N 51°54' E 004°29'0 0.0
2017-Sep-20 16:00N 51°54' E 004°29'0 0.0
2017-Sep-20 15:30N 51°54' E 004°29'0 0.0
2017-Sep-20 14:59N 51°54' E 004°29'0 0.0
2017-Sep-20 13:59N 51°54' E 004°29'0 0.0
2017-Sep-20 13:30N 51°54' E 004°29'0 0.0
2017-Sep-20 13:00N 51°54' E 004°29'1 1.2
2017-Sep-20 12:31N 51°54' E 004°29'1 2.7
2017-Sep-20 12:01N 51°53' E 004°26'1 2.6
2017-Sep-20 11:30N 51°53' E 004°24'2 4.2
2017-Sep-20 11:01N 51°54' E 004°21'2 4.7
2017-Sep-20 10:31N 51°54' E 004°18'3 6.0
2017-Sep-20 10:00N 51°54' E 004°23'2 3.4
2017-Sep-20 09:30N 51°54' E 004°25'2 4.3
2017-Sep-20 09:00N 51°54' E 004°29'0 0.5
2017-Sep-20 08:29N 51°54' E 004°29'0 0.0
2017-Sep-20 07:59N 51°54' E 004°29'0 0.0
2017-Sep-20 07:29N 51°54' E 004°29'0 0.0
2017-Sep-20 06:59N 51°54' E 004°29'0 0.0
2017-Sep-20 06:29N 51°54' E 004°29'0 0.0
2017-Sep-20 05:59N 51°54' E 004°29'0 0.0
2017-Sep-20 05:29N 51°54' E 004°29'0 0.0
2017-Sep-20 04:59N 51°54' E 004°29'0 0.0
2017-Sep-20 04:29N 51°54' E 004°29'0 0.0
2017-Sep-20 03:59N 51°54' E 004°29'0 0.0
2017-Sep-20 03:29N 51°54' E 004°29'0 0.0
2017-Sep-20 02:59N 51°54' E 004°29'0 0.0
2017-Sep-20 02:29N 51°54' E 004°29'0 0.0
2017-Sep-20 01:59N 51°54' E 004°29'0 0.0
2017-Sep-20 01:29N 51°54' E 004°29'0 0.0
2017-Sep-20 00:59N 51°54' E 004°29'0 0.0
2017-Sep-20 00:29N 51°54' E 004°29'0 0.0
2017-Sep-19 23:59N 51°54' E 004°29'0 0.0
2017-Sep-19 23:29N 51°54' E 004°29'0 0.0
2017-Sep-19 22:59N 51°54' E 004°29'0 0.0
2017-Sep-19 22:29N 51°54' E 004°29'0 0.0
2017-Sep-19 21:59N 51°54' E 004°29'0 0.0
2017-Sep-19 21:29N 51°54' E 004°29'0 0.0
2017-Sep-19 20:59N 51°54' E 004°29'0 0.0
2017-Sep-19 20:29N 51°54' E 004°29'0 0.0
2017-Sep-19 19:59N 51°54' E 004°29'0 0.0
2017-Sep-19 19:29N 51°54' E 004°29'0 0.0
2017-Sep-19 18:59N 51°54' E 004°29'0 0.0
2017-Sep-19 18:29N 51°54' E 004°29'0 0.0
2017-Sep-19 17:59N 51°54' E 004°29'0 0.0
2017-Sep-19 17:29N 51°54' E 004°29'0 0.0
2017-Sep-19 16:59N 51°54' E 004°29'0 0.0
2017-Sep-19 16:29N 51°54' E 004°29'0 0.0
2017-Sep-19 15:59N 51°54' E 004°29'0 0.0
2017-Sep-19 15:29N 51°54' E 004°29'0 0.0
2017-Sep-19 14:59N 51°54' E 004°29'0 0.0
2017-Sep-19 14:29N 51°54' E 004°29'0 0.0
2017-Sep-19 13:59N 51°54' E 004°29'0 0.0
2017-Sep-19 13:29N 51°54' E 004°29'1 1.7
2017-Sep-19 13:00N 51°54' E 004°28'3 6.3
2017-Sep-19 12:30N 51°54' E 004°23'3 6.0
2017-Sep-19 12:00N 51°54' E 004°18'3 6.0
2017-Sep-19 11:30N 51°55' E 004°14'3 6.2
2017-Sep-19 11:00N 51°57' E 004°10'3 5.5
2017-Sep-19 10:30N 51°59' E 004°06'2 4.6
2017-Sep-19 10:00N 51°60' E 004°03'4 7.1
2017-Sep-19 09:30N 52°02' E 004°07'4 7.3
2017-Sep-19 09:00N 52°05' E 004°11'3 6.0
2017-Sep-19 08:30N 52°06' E 004°16'0 0.0
2017-Sep-19 08:00N 52°06' E 004°16'0 0.0
2017-Sep-19 07:30N 52°06' E 004°16'0 0.0
2017-Sep-19 07:00N 52°06' E 004°16'0 0.0
2017-Sep-19 06:30N 52°06' E 004°16'0 0.0
2017-Sep-19 06:00N 52°06' E 004°16'0 0.0
2017-Sep-19 05:30N 52°06' E 004°16'0 0.0
2017-Sep-19 05:00N 52°06' E 004°16'0 0.0
2017-Sep-19 04:30N 52°06' E 004°16'0 0.0
2017-Sep-19 04:00N 52°06' E 004°16'0 0.0
2017-Sep-19 03:30N 52°06' E 004°16'0 0.0
2017-Sep-19 03:00N 52°06' E 004°16'0 0.0
2017-Sep-19 02:30N 52°06' E 004°16'0 0.0
2017-Sep-19 02:00N 52°06' E 004°16'0 0.0
2017-Sep-19 01:30N 52°06' E 004°16'0 0.0
2017-Sep-19 01:00N 52°06' E 004°16'0 0.0
2017-Sep-19 00:30N 52°06' E 004°16'0 0.0
2017-Sep-19 00:00N 52°06' E 004°16'0 0.0
2017-Sep-18 23:30N 52°06' E 004°16'0 0.0
2017-Sep-18 23:00N 52°06' E 004°16'0 0.0
2017-Sep-18 22:30N 52°06' E 004°16'0 0.0
2017-Sep-18 22:00N 52°06' E 004°16'0 0.0
2017-Sep-18 21:30N 52°06' E 004°16'0 0.0
2017-Sep-18 21:00N 52°06' E 004°16'0 0.0
2017-Sep-18 20:30N 52°06' E 004°16'0 0.0
2017-Sep-18 20:00N 52°06' E 004°16'0 0.0
2017-Sep-18 19:30N 52°06' E 004°16'0 0.0
2017-Sep-18 19:00N 52°06' E 004°16'0 0.0
2017-Sep-18 18:30N 52°06' E 004°16'0 0.0
2017-Sep-18 18:00N 52°06' E 004°16'0 0.0
2017-Sep-18 17:30N 52°06' E 004°16'0 0.0
2017-Sep-18 17:00N 52°06' E 004°16'0 0.0
2017-Sep-18 16:29N 52°06' E 004°16'0 0.0
2017-Sep-18 15:59N 52°06' E 004°16'0 0.0
2017-Sep-18 15:29N 52°06' E 004°16'0 0.0
2017-Sep-18 14:59N 52°06' E 004°16'0 0.0
2017-Sep-18 14:29N 52°06' E 004°16'0 0.0
2017-Sep-18 13:56N 52°06' E 004°16'0 0.0
2017-Sep-18 13:30N 52°06' E 004°16'1 1.2
2017-Sep-18 13:00N 52°06' E 004°15'3 5.7
2017-Sep-18 12:30N 52°05' E 004°11'3 5.7
2017-Sep-18 12:00N 52°03' E 004°08'3 5.1
2017-Sep-18 11:30N 52°01' E 004°05'2 3.9
2017-Sep-18 11:00N 51°59' E 004°04'3 6.6
2017-Sep-18 10:30N 51°58' E 004°09'3 6.9
2017-Sep-18 10:00N 51°56' E 004°13'4 7.2
2017-Sep-18 09:30N 51°54' E 004°18'3 6.3
2017-Sep-18 09:00N 51°54' E 004°23'3 6.6
2017-Sep-18 08:30N 51°54' E 004°29'0 0.4
2017-Sep-18 07:59N 51°54' E 004°29'0 0.0
2017-Sep-18 07:26N 51°54' E 004°29'0 0.0
2017-Sep-18 06:59N 51°54' E 004°29'0 0.0
2017-Sep-18 06:29N 51°54' E 004°29'0 0.0
2017-Sep-18 05:59N 51°54' E 004°29'0 0.0
2017-Sep-18 05:30N 51°54' E 004°29'0 0.0
2017-Sep-18 04:59N 51°54' E 004°29'0 0.0
2017-Sep-18 04:29N 51°54' E 004°29'0 0.0
2017-Sep-18 03:59N 51°54' E 004°29'0 0.0
2017-Sep-18 03:26N 51°54' E 004°29'0 0.0
2017-Sep-18 02:59N 51°54' E 004°29'0 0.0
2017-Sep-18 02:29N 51°54' E 004°29'0 0.0
2017-Sep-18 01:59N 51°54' E 004°29'0 0.0
2017-Sep-18 01:29N 51°54' E 004°29'0 0.0
2017-Sep-18 00:59N 51°54' E 004°29'0 0.0
2017-Sep-18 00:29N 51°54' E 004°29'0 0.0
2017-Sep-17 23:59N 51°54' E 004°29'0 0.0
2017-Sep-17 23:29N 51°54' E 004°29'0 0.0
2017-Sep-17 22:59N 51°54' E 004°29'0 0.0
2017-Sep-17 22:29N 51°54' E 004°29'0 0.0
2017-Sep-17 21:59N 51°54' E 004°29'0 0.0
2017-Sep-17 21:29N 51°54' E 004°29'0 0.0
2017-Sep-17 20:59N 51°54' E 004°29'0 0.0
2017-Sep-17 20:29N 51°54' E 004°29'0 0.0
2017-Sep-17 19:59N 51°54' E 004°29'0 0.0
2017-Sep-17 19:29N 51°54' E 004°29'0 0.0
2017-Sep-17 18:59N 51°54' E 004°29'0 0.2
2017-Sep-17 18:31N 51°54' E 004°29'1 1.7
2017-Sep-17 18:00N 51°54' E 004°28'0 0.0
2017-Sep-17 17:30N 51°54' E 004°28'0 0.0
2017-Sep-17 17:00N 51°54' E 004°28'0 0.0
2017-Sep-17 16:30N 51°54' E 004°28'1 2.0
2017-Sep-17 16:00N 51°54' E 004°26'2 3.6
2017-Sep-17 15:30N 51°54' E 004°23'2 4.7
2017-Sep-17 15:00N 51°54' E 004°19'2 4.8
2017-Sep-17 14:30N 51°54' E 004°16'2 4.9
2017-Sep-17 14:00N 51°56' E 004°13'3 5.6
2017-Sep-17 13:30N 51°58' E 004°09'3 6.6
2017-Sep-17 13:01N 51°59' E 004°04'1 2.8
2017-Sep-17 12:31N 52°00' E 004°05'1 2.0
2017-Sep-17 12:01N 52°01' E 004°04'1 1.2
2017-Sep-17 11:30N 52°01' E 004°04'1 1.8
2017-Sep-17 11:00N 52°00' E 004°03'1 1.1
2017-Sep-17 10:31N 51°60' E 004°03'4 7.7
2017-Sep-17 10:00N 51°58' E 004°08'4 8.5
2017-Sep-17 09:31N 51°55' E 004°14'4 8.3
2017-Sep-17 09:01N 51°54' E 004°20'4 7.8
2017-Sep-17 08:30N 51°54' E 004°26'1 1.2
2017-Sep-17 07:55N 51°54' E 004°28'0 0.0
2017-Sep-17 07:28N 51°54' E 004°28'0 0.0
2017-Sep-17 06:58N 51°54' E 004°28'0 0.0
2017-Sep-17 06:28N 51°54' E 004°28'0 0.0
2017-Sep-17 05:58N 51°54' E 004°28'0 0.0
2017-Sep-17 05:24N 51°54' E 004°28'0 0.0
2017-Sep-17 05:01N 51°54' E 004°28'0 0.0
2017-Sep-17 04:30N 51°54' E 004°28'0 0.0
2017-Sep-17 04:00N 51°54' E 004°28'0 0.0
2017-Sep-17 03:30N 51°54' E 004°28'0 0.0
2017-Sep-17 02:58N 51°54' E 004°28'0 0.0
2017-Sep-17 02:30N 51°54' E 004°28'0 0.0
2017-Sep-17 02:00N 51°54' E 004°28'0 0.0
2017-Sep-17 01:30N 51°54' E 004°28'0 0.0
2017-Sep-17 01:00N 51°54' E 004°28'0 0.0
2017-Sep-17 00:30N 51°54' E 004°28'0 0.0
2017-Sep-17 00:00N 51°54' E 004°28'0 0.0
2017-Sep-16 23:30N 51°54' E 004°28'0 0.0
2017-Sep-16 23:00N 51°54' E 004°28'0 0.0
2017-Sep-16 22:30N 51°54' E 004°28'0 0.0
2017-Sep-16 22:00N 51°54' E 004°28'0 0.0
2017-Sep-16 21:30N 51°54' E 004°28'0 0.0
2017-Sep-16 21:00N 51°54' E 004°28'0 0.0
2017-Sep-16 20:30N 51°54' E 004°28'0 0.0
2017-Sep-16 19:57N 51°54' E 004°28'0 0.0
2017-Sep-16 19:30N 51°54' E 004°28'0 0.0
2017-Sep-16 18:57N 51°54' E 004°28'0 0.0
2017-Sep-16 18:30N 51°54' E 004°28'1 1.3
2017-Sep-16 18:00N 51°54' E 004°26'3 6.8
2017-Sep-16 17:31N 51°54' E 004°21'0 0.2
2017-Sep-16 17:00N 51°54' E 004°21'2 4.7
2017-Sep-16 16:30N 51°54' E 004°17'3 5.1
2017-Sep-16 16:00N 51°55' E 004°14'2 4.9
2017-Sep-16 15:30N 51°57' E 004°11'2 4.3
2017-Sep-16 15:00N 51°58' E 004°08'2 4.7
2017-Sep-16 14:30N 51°59' E 004°04'2 3.9
2017-Sep-16 14:00N 52°01' E 004°05'2 4.9
2017-Sep-16 13:30N 52°03' E 004°07'2 4.4
2017-Sep-16 13:00N 52°04' E 004°04'2 5.0
2017-Sep-16 12:30N 52°05' E 003°60'1 2.4
2017-Sep-16 12:00N 52°03' E 003°60'2 4.3
2017-Sep-16 11:30N 52°02' E 004°02'1 2.4
2017-Sep-16 11:01N 52°01' E 004°04'2 3.3
2017-Sep-16 10:30N 51°59' E 004°04'3 7.0
2017-Sep-16 10:00N 51°58' E 004°09'4 7.0
2017-Sep-16 09:30N 51°56' E 004°14'4 7.2
2017-Sep-16 09:00N 51°54' E 004°19'1 2.6
2017-Sep-16 08:30N 51°54' E 004°21'0 0.0
2017-Sep-16 08:00N 51°54' E 004°21'0 0.0
2017-Sep-16 07:30N 51°54' E 004°21'0 0.0
2017-Sep-16 07:00N 51°54' E 004°21'0 0.0
2017-Sep-16 06:30N 51°54' E 004°21'2 3.9
2017-Sep-16 06:00N 51°54' E 004°24'2 4.6
2017-Sep-16 05:30N 51°54' E 004°28'0 0.0
2017-Sep-16 04:58N 51°54' E 004°28'0 0.0
2017-Sep-16 04:29N 51°54' E 004°28'0 0.0
2017-Sep-16 03:58N 51°54' E 004°28'0 0.0
2017-Sep-16 03:29N 51°54' E 004°28'0 0.0
2017-Sep-16 02:58N 51°54' E 004°28'0 0.0
2017-Sep-16 02:28N 51°54' E 004°28'0 0.0
2017-Sep-16 01:59N 51°54' E 004°28'0 0.0
2017-Sep-16 01:29N 51°54' E 004°28'0 0.0
2017-Sep-16 00:58N 51°54' E 004°28'0 0.0
2017-Sep-16 00:29N 51°54' E 004°28'0 0.0
2017-Sep-15 23:58N 51°54' E 004°28'0 0.0
2017-Sep-15 23:28N 51°54' E 004°28'0 0.0
2017-Sep-15 22:58N 51°54' E 004°28'0 0.0
2017-Sep-15 22:29N 51°54' E 004°28'0 0.0
2017-Sep-15 21:58N 51°54' E 004°28'0 0.0
2017-Sep-15 21:29N 51°54' E 004°28'0 0.0
2017-Sep-15 20:58N 51°54' E 004°28'0 0.0
2017-Sep-15 20:28N 51°54' E 004°28'0 0.0
2017-Sep-15 19:58N 51°54' E 004°28'0 0.0
2017-Sep-15 19:28N 51°54' E 004°28'0 0.0
2017-Sep-15 18:58N 51°54' E 004°28'0 0.0
2017-Sep-15 18:28N 51°54' E 004°28'0 0.0
2017-Sep-15 17:58N 51°54' E 004°28'0 0.0
2017-Sep-15 17:26N 51°54' E 004°28'0 0.0
2017-Sep-15 16:59N 51°54' E 004°28'0 0.0
2017-Sep-15 16:29N 51°54' E 004°28'0 0.0
2017-Sep-15 15:58N 51°54' E 004°28'0 0.0
2017-Sep-15 15:16N 51°54' E 004°28'0 0.0
2017-Sep-15 14:59N 51°54' E 004°28'0 0.0
2017-Sep-15 14:28N 51°54' E 004°28'0 0.0
2017-Sep-15 13:59N 51°54' E 004°28'0 0.0
2017-Sep-15 13:29N 51°54' E 004°28'0 0.0
2017-Sep-15 12:56N 51°54' E 004°28'0 0.0
2017-Sep-15 12:29N 51°54' E 004°28'0 0.0
2017-Sep-15 11:58N 51°54' E 004°28'0 0.0
2017-Sep-15 11:28N 51°54' E 004°28'0 0.0
2017-Sep-15 10:58N 51°54' E 004°28'0 0.0
2017-Sep-15 10:29N 51°54' E 004°28'0 0.0
2017-Sep-15 09:59N 51°54' E 004°28'0 0.0
2017-Sep-15 09:28N 51°54' E 004°28'0 0.0
2017-Sep-15 08:58N 51°54' E 004°28'0 0.0
2017-Sep-15 08:27N 51°54' E 004°28'0 0.0
2017-Sep-15 08:00N 51°54' E 004°28'0 0.0
2017-Sep-15 07:28N 51°54' E 004°28'0 0.0
2017-Sep-15 07:00N 51°54' E 004°28'0 0.0
2017-Sep-15 06:28N 51°54' E 004°28'0 0.0
2017-Sep-15 05:57N 51°54' E 004°28'0 0.0
2017-Sep-15 05:27N 51°54' E 004°28'0 0.0
2017-Sep-15 04:58N 51°54' E 004°28'0 0.0
2017-Sep-15 04:30N 51°54' E 004°28'0 0.0
2017-Sep-15 04:00N 51°54' E 004°28'0 0.0
2017-Sep-15 03:30N 51°54' E 004°28'0 0.0
2017-Sep-15 03:00N 51°54' E 004°28'0 0.0
2017-Sep-15 02:27N 51°54' E 004°28'0 0.0
2017-Sep-15 02:00N 51°54' E 004°28'0 0.0
2017-Sep-15 01:30N 51°54' E 004°28'0 0.0
2017-Sep-15 01:00N 51°54' E 004°28'0 0.0
2017-Sep-15 00:27N 51°54' E 004°28'0 0.0
2017-Sep-15 00:00N 51°54' E 004°28'0 0.0
2017-Sep-14 23:30N 51°54' E 004°28'0 0.0
2017-Sep-14 22:57N 51°54' E 004°28'0 0.0
2017-Sep-14 22:30N 51°54' E 004°28'0 0.0
2017-Sep-14 22:00N 51°54' E 004°28'0 0.0
2017-Sep-14 21:28N 51°54' E 004°28'0 0.0
2017-Sep-14 20:58N 51°54' E 004°28'0 0.0
2017-Sep-14 20:24N 51°54' E 004°28'0 0.0
2017-Sep-14 19:54N 51°54' E 004°28'0 0.0
2017-Sep-14 19:28N 51°54' E 004°28'0 0.0
2017-Sep-14 18:55N 51°54' E 004°28'0 0.0
2017-Sep-14 18:30N 51°54' E 004°28'0 0.0
2017-Sep-14 17:58N 51°54' E 004°28'0 0.1
2017-Sep-14 17:30N 51°54' E 004°28'1 2.6
2017-Sep-14 17:00N 51°54' E 004°25'2 3.3
2017-Sep-14 16:30N 51°54' E 004°23'3 5.2
2017-Sep-14 16:00N 51°54' E 004°19'1 1.2
2017-Sep-14 15:30N 51°54' E 004°18'2 4.6
2017-Sep-14 15:00N 51°54' E 004°21'2 4.7
2017-Sep-14 14:30N 51°54' E 004°25'2 3.0
2017-Sep-14 14:00N 51°54' E 004°28'0 0.0
2017-Sep-14 13:30N 51°54' E 004°28'0 0.0
2017-Sep-14 13:00N 51°54' E 004°28'0 0.0
2017-Sep-14 12:29N 51°54' E 004°28'0 0.0
2017-Sep-14 11:59N 51°54' E 004°28'0 0.0
2017-Sep-14 11:27N 51°54' E 004°28'0 0.0
2017-Sep-14 10:56N 51°54' E 004°28'0 0.0
2017-Sep-14 10:30N 51°54' E 004°28'0 0.0
2017-Sep-14 10:00N 51°54' E 004°28'0 0.0
2017-Sep-14 09:30N 51°54' E 004°28'0 0.0
2017-Sep-14 09:00N 51°54' E 004°28'0 0.0
2017-Sep-14 08:30N 51°54' E 004°28'0 0.0
2017-Sep-14 08:00N 51°54' E 004°28'0 0.0
2017-Sep-14 07:30N 51°54' E 004°28'0 0.0
2017-Sep-14 07:00N 51°54' E 004°28'0 0.0
2017-Sep-14 06:30N 51°54' E 004°28'0 0.0
2017-Sep-14 06:00N 51°54' E 004°28'0 0.0
2017-Sep-14 05:30N 51°54' E 004°28'0 0.0
2017-Sep-14 05:00N 51°54' E 004°28'0 0.0
2017-Sep-14 04:30N 51°54' E 004°28'0 0.0
2017-Sep-14 04:00N 51°54' E 004°28'0 0.0
2017-Sep-14 03:30N 51°54' E 004°28'0 0.0
2017-Sep-14 03:00N 51°54' E 004°28'0 0.0
2017-Sep-14 02:30N 51°54' E 004°28'0 0.0
2017-Sep-14 02:00N 51°54' E 004°28'0 0.0
2017-Sep-14 01:30N 51°54' E 004°28'0 0.0
2017-Sep-14 01:00N 51°54' E 004°28'0 0.0
2017-Sep-14 00:30N 51°54' E 004°28'0 0.0
2017-Sep-14 00:00N 51°54' E 004°28'0 0.0
2017-Sep-13 23:30N 51°54' E 004°28'0 0.0
2017-Sep-13 23:00N 51°54' E 004°28'0 0.0
2017-Sep-13 22:30N 51°54' E 004°28'0 0.0
2017-Sep-13 22:00N 51°54' E 004°28'0 0.0
2017-Sep-13 21:30N 51°54' E 004°28'0 0.0
2017-Sep-13 21:00N 51°54' E 004°28'0 0.0
2017-Sep-13 20:30N 51°54' E 004°28'0 0.0
2017-Sep-13 20:00N 51°54' E 004°28'0 0.0
2017-Sep-13 19:30N 51°54' E 004°28'0 0.0
2017-Sep-13 19:00N 51°54' E 004°28'0 0.0
2017-Sep-13 18:30N 51°54' E 004°28'0 0.0
2017-Sep-13 18:00N 51°54' E 004°28'0 0.0
2017-Sep-13 17:30N 51°54' E 004°28'0 0.0
2017-Sep-13 17:00N 51°54' E 004°28'0 0.0
2017-Sep-13 16:30N 51°54' E 004°28'0 0.0
2017-Sep-13 15:59N 51°54' E 004°28'0 0.0
2017-Sep-13 15:30N 51°54' E 004°28'0 0.0
2017-Sep-13 15:00N 51°54' E 004°28'0 0.0
2017-Sep-13 14:30N 51°54' E 004°28'0 0.0
2017-Sep-13 14:00N 51°54' E 004°28'0 0.0
2017-Sep-13 13:29N 51°54' E 004°28'0 0.0
2017-Sep-13 13:00N 51°54' E 004°28'0 0.0
2017-Sep-13 12:30N 51°54' E 004°28'0 0.0
2017-Sep-13 12:00N 51°54' E 004°28'0 0.0
2017-Sep-13 11:30N 51°54' E 004°28'0 0.0
2017-Sep-13 11:00N 51°54' E 004°28'0 0.0
2017-Sep-13 10:30N 51°54' E 004°28'0 0.0
2017-Sep-13 10:00N 51°54' E 004°28'0 0.0
2017-Sep-13 09:30N 51°54' E 004°28'0 0.0
2017-Sep-13 08:59N 51°54' E 004°28'0 0.0
2017-Sep-13 08:30N 51°54' E 004°28'0 0.0
2017-Sep-13 08:00N 51°54' E 004°28'0 0.0
2017-Sep-13 07:30N 51°54' E 004°28'0 0.0
2017-Sep-13 07:00N 51°54' E 004°28'0 0.0
2017-Sep-13 06:30N 51°54' E 004°28'0 0.0
2017-Sep-13 06:00N 51°54' E 004°28'0 0.0
2017-Sep-13 05:30N 51°54' E 004°28'0 0.0
2017-Sep-13 05:00N 51°54' E 004°28'0 0.0
2017-Sep-13 04:30N 51°54' E 004°28'0 0.0
2017-Sep-13 04:00N 51°54' E 004°28'0 0.0
2017-Sep-13 03:30N 51°54' E 004°28'0 0.0
2017-Sep-13 03:00N 51°54' E 004°28'0 0.0
2017-Sep-13 02:30N 51°54' E 004°28'0 0.0
2017-Sep-13 02:00N 51°54' E 004°28'0 0.0
2017-Sep-13 01:30N 51°54' E 004°28'0 0.0
2017-Sep-13 01:00N 51°54' E 004°28'0 0.0
2017-Sep-13 00:30N 51°54' E 004°28'0 0.0
2017-Sep-13 00:00N 51°54' E 004°28'0 0.0
2017-Sep-12 23:30N 51°54' E 004°28'0 0.0
2017-Sep-12 23:00N 51°54' E 004°28'0 0.0
2017-Sep-12 22:30N 51°54' E 004°28'0 0.0
2017-Sep-12 22:00N 51°54' E 004°28'0 0.0
2017-Sep-12 21:30N 51°54' E 004°28'0 0.0
2017-Sep-12 21:00N 51°54' E 004°28'0 0.0
2017-Sep-12 20:29N 51°54' E 004°28'0 0.0
2017-Sep-12 20:00N 51°54' E 004°28'0 0.0
2017-Sep-12 19:30N 51°54' E 004°28'0 0.0
2017-Sep-12 19:00N 51°54' E 004°28'0 0.0
2017-Sep-12 18:30N 51°54' E 004°28'0 0.0
2017-Sep-12 18:00N 51°54' E 004°28'0 0.0
2017-Sep-12 17:30N 51°54' E 004°28'0 0.0
2017-Sep-12 17:00N 51°54' E 004°28'0 0.0
2017-Sep-12 16:30N 51°54' E 004°28'0 0.0
2017-Sep-12 16:00N 51°54' E 004°28'0 0.0
2017-Sep-12 15:30N 51°54' E 004°28'0 0.0
2017-Sep-12 15:00N 51°54' E 004°28'0 0.0
2017-Sep-12 14:31N 51°54' E 004°28'0 0.0
2017-Sep-12 14:00N 51°54' E 004°28'0 0.0
2017-Sep-12 13:30N 51°54' E 004°28'0 0.2
2017-Sep-12 13:00N 51°54' E 004°28'3 5.0
2017-Sep-12 12:30N 51°54' E 004°23'3 5.8
2017-Sep-12 12:00N 51°54' E 004°19'2 4.6
2017-Sep-12 11:30N 51°54' E 004°15'2 3.4
2017-Sep-12 11:00N 51°56' E 004°13'2 3.5
2017-Sep-12 10:30N 51°57' E 004°11'2 3.6
2017-Sep-12 10:00N 51°58' E 004°09'2 4.8
2017-Sep-12 09:30N 51°59' E 004°05'2 4.3
2017-Sep-12 09:00N 52°00' E 004°03'3 5.3
2017-Sep-12 08:30N 52°02' E 004°06'2 4.6
2017-Sep-12 08:00N 52°04' E 004°08'2 4.1
2017-Sep-12 07:30N 52°05' E 004°11'2 3.3
2017-Sep-12 07:00N 52°06' E 004°13'1 3.0
2017-Sep-12 06:30N 52°07' E 004°14'2 3.4
2017-Sep-12 06:00N 52°06' E 004°16'0 0.0
2017-Sep-12 05:30N 52°06' E 004°16'0 0.0
2017-Sep-12 05:00N 52°06' E 004°16'0 0.0
2017-Sep-12 04:30N 52°06' E 004°16'0 0.0
2017-Sep-12 04:00N 52°06' E 004°16'0 0.0
2017-Sep-12 03:30N 52°06' E 004°16'0 0.0
2017-Sep-12 03:00N 52°06' E 004°16'0 0.0
2017-Sep-12 02:30N 52°06' E 004°16'0 0.0
2017-Sep-12 02:00N 52°06' E 004°16'  
Track history (hours):
 
Tides and Currents Weather Stations Pressure Air Temp Water Temp Dewpoint Dewpoint Depression Visibility Wind Speed Wind Dir Waves Ship Positions

Eendracht (Netherlands)

Last reported at 2017-Sep-22 01:59 UTC. Time now 2017-Sep-23 03:50 UTC.
Position N 52°28' E 004°35'.

Length 59 m; beam 12 m; draft 5 m.

Type: Sailing vessel. MMSI: 244543000.

Date/timePositionNaut miles runAvg speedWind from/ knotsBaromVisibWave heightAir tempDewpointWater temp
2017-Sep-22 01:59N 52°28' E 004°35'0 0.0
2017-Sep-22 01:29N 52°28' E 004°35'0 0.0
2017-Sep-22 00:59N 52°28' E 004°35'0 0.0
2017-Sep-22 00:29N 52°28' E 004°35'0 0.0
2017-Sep-21 23:59N 52°28' E 004°35'0 0.0
2017-Sep-21 23:29N 52°28' E 004°35'0 0.0
2017-Sep-21 22:58N 52°28' E 004°35'0 0.0
2017-Sep-21 22:30N 52°28' E 004°35'0 0.0
2017-Sep-21 21:59N 52°28' E 004°35'0 0.0
2017-Sep-21 21:29N 52°28' E 004°35'0 0.0
2017-Sep-21 20:56N 52°28' E 004°35'0 0.0
2017-Sep-21 20:29N 52°28' E 004°35'0 0.0
2017-Sep-21 20:01N 52°28' E 004°35'0 0.0
2017-Sep-21 19:28N 52°28' E 004°35'0 0.0
2017-Sep-21 18:58N 52°28' E 004°35'0 0.0
2017-Sep-21 18:28N 52°28' E 004°35'0 0.0
2017-Sep-21 17:58N 52°28' E 004°35'0 0.0
2017-Sep-21 17:28N 52°28' E 004°35'0 0.0
2017-Sep-21 17:01N 52°28' E 004°35'0 0.0
2017-Sep-21 16:30N 52°28' E 004°35'0 0.0
2017-Sep-21 16:00N 52°28' E 004°35'0 0.0
2017-Sep-21 15:30N 52°28' E 004°35'0 0.0
2017-Sep-21 15:00N 52°28' E 004°35'0 0.0
2017-Sep-21 14:30N 52°28' E 004°35'0 0.5
2017-Sep-21 14:00N 52°28' E 004°35'3 5.6
2017-Sep-21 13:30N 52°28' E 004°30'3 5.1
2017-Sep-21 13:00N 52°26' E 004°28'3 5.8
2017-Sep-21 12:30N 52°23' E 004°26'3 5.4
2017-Sep-21 12:00N 52°21' E 004°24'3 5.3
2017-Sep-21 11:30N 52°19' E 004°22'3 5.4
2017-Sep-21 11:00N 52°16' E 004°20'3 5.7
2017-Sep-21 10:30N 52°13' E 004°18'3 5.4
2017-Sep-21 10:00N 52°11' E 004°17'3 5.2
2017-Sep-21 09:30N 52°08' E 004°16'2 4.8
2017-Sep-21 09:00N 52°06' E 004°16'0 0.1
2017-Sep-21 08:29N 52°06' E 004°16'0 0.0
2017-Sep-21 07:59N 52°06' E 004°16'0 0.0
2017-Sep-21 07:29N 52°06' E 004°16'0 0.0
2017-Sep-21 06:59N 52°06' E 004°16'0 0.0
2017-Sep-21 06:29N 52°06' E 004°16'0 0.0
2017-Sep-21 05:59N 52°06' E 004°16'0 0.0
2017-Sep-21 05:29N 52°06' E 004°16'0 0.0
2017-Sep-21 04:59N 52°06' E 004°16'0 0.0
2017-Sep-21 04:29N 52°06' E 004°16'0 0.0
2017-Sep-21 03:59N 52°06' E 004°16'0 0.0
2017-Sep-21 03:29N 52°06' E 004°16'0 0.0
2017-Sep-21 02:59N 52°06' E 004°16'0 0.0
2017-Sep-21 02:29N 52°06' E 004°16'0 0.0
2017-Sep-21 01:59N 52°06' E 004°16'0 0.0
2017-Sep-21 01:29N 52°06' E 004°16'0 0.0
2017-Sep-21 01:00N 52°06' E 004°16'1 1.2
2017-Sep-21 00:31N 52°06' E 004°15'2 4.3
2017-Sep-21 00:00N 52°06' E 004°12'3 6.0
2017-Sep-20 23:30N 52°04' E 004°08'3 5.5
2017-Sep-20 23:00N 52°02' E 004°05'3 5.4
2017-Sep-20 22:30N 51°60' E 004°03'4 7.7
2017-Sep-20 22:00N 51°58' E 004°08'4 8.0
2017-Sep-20 21:30N 51°56' E 004°13'4 7.4
2017-Sep-20 21:01N 51°54' E 004°18'3 5.7
2017-Sep-20 20:31N 51°54' E 004°23'3 6.3
2017-Sep-20 20:01N 51°54' E 004°28'1 1.1
2017-Sep-20 19:29N 51°54' E 004°29'0 0.0
2017-Sep-20 18:59N 51°54' E 004°29'0 0.0
2017-Sep-20 18:29N 51°54' E 004°29'0 0.0
2017-Sep-20 17:59N 51°54' E 004°29'0 0.0
2017-Sep-20 17:29N 51°54' E 004°29'0 0.0
2017-Sep-20 16:59N 51°54' E 004°29'0 0.0
2017-Sep-20 16:29N 51°54' E 004°29'0 0.0
2017-Sep-20 16:00N 51°54' E 004°29'0 0.0
2017-Sep-20 15:30N 51°54' E 004°29'0 0.0
2017-Sep-20 14:59N 51°54' E 004°29'0 0.0
2017-Sep-20 13:59N 51°54' E 004°29'0 0.0
2017-Sep-20 13:30N 51°54' E 004°29'0 0.0
2017-Sep-20 13:00N 51°54' E 004°29'1 1.2
2017-Sep-20 12:31N 51°54' E 004°29'1 2.7
2017-Sep-20 12:01N 51°53' E 004°26'1 2.6
2017-Sep-20 11:30N 51°53' E 004°24'2 4.2
2017-Sep-20 11:01N 51°54' E 004°21'2 4.7
2017-Sep-20 10:31N 51°54' E 004°18'3 6.0
2017-Sep-20 10:00N 51°54' E 004°23'2 3.4
2017-Sep-20 09:30N 51°54' E 004°25'2 4.3
2017-Sep-20 09:00N 51°54' E 004°29'0 0.5
2017-Sep-20 08:29N 51°54' E 004°29'0 0.0
2017-Sep-20 07:59N 51°54' E 004°29'0 0.0
2017-Sep-20 07:29N 51°54' E 004°29'0 0.0
2017-Sep-20 06:59N 51°54' E 004°29'0 0.0
2017-Sep-20 06:29N 51°54' E 004°29'0 0.0
2017-Sep-20 05:59N 51°54' E 004°29'0 0.0
2017-Sep-20 05:29N 51°54' E 004°29'0 0.0
2017-Sep-20 04:59N 51°54' E 004°29'0 0.0
2017-Sep-20 04:29N 51°54' E 004°29'0 0.0
2017-Sep-20 03:59N 51°54' E 004°29'0 0.0
2017-Sep-20 03:29N 51°54' E 004°29'0 0.0
2017-Sep-20 02:59N 51°54' E 004°29'0 0.0
2017-Sep-20 02:29N 51°54' E 004°29'0 0.0
2017-Sep-20 01:59N 51°54' E 004°29'0 0.0
2017-Sep-20 01:29N 51°54' E 004°29'0 0.0
2017-Sep-20 00:59N 51°54' E 004°29'0 0.0
2017-Sep-20 00:29N 51°54' E 004°29'0 0.0
2017-Sep-19 23:59N 51°54' E 004°29'0 0.0
2017-Sep-19 23:29N 51°54' E 004°29'0 0.0
2017-Sep-19 22:59N 51°54' E 004°29'0 0.0
2017-Sep-19 22:29N 51°54' E 004°29'0 0.0
2017-Sep-19 21:59N 51°54' E 004°29'0 0.0
2017-Sep-19 21:29N 51°54' E 004°29'0 0.0
2017-Sep-19 20:59N 51°54' E 004°29'0 0.0
2017-Sep-19 20:29N 51°54' E 004°29'0 0.0
2017-Sep-19 19:59N 51°54' E 004°29'0 0.0
2017-Sep-19 19:29N 51°54' E 004°29'0 0.0
2017-Sep-19 18:59N 51°54' E 004°29'0 0.0
2017-Sep-19 18:29N 51°54' E 004°29'0 0.0
2017-Sep-19 17:59N 51°54' E 004°29'0 0.0
2017-Sep-19 17:29N 51°54' E 004°29'0 0.0
2017-Sep-19 16:59N 51°54' E 004°29'0 0.0
2017-Sep-19 16:29N 51°54' E 004°29'0 0.0
2017-Sep-19 15:59N 51°54' E 004°29'0 0.0
2017-Sep-19 15:29N 51°54' E 004°29'0 0.0
2017-Sep-19 14:59N 51°54' E 004°29'0 0.0
2017-Sep-19 14:29N 51°54' E 004°29'0 0.0
2017-Sep-19 13:59N 51°54' E 004°29'0 0.0
2017-Sep-19 13:29N 51°54' E 004°29'1 1.7
2017-Sep-19 13:00N 51°54' E 004°28'3 6.3
2017-Sep-19 12:30N 51°54' E 004°23'3 6.0
2017-Sep-19 12:00N 51°54' E 004°18'3 6.0
2017-Sep-19 11:30N 51°55' E 004°14'3 6.2
2017-Sep-19 11:00N 51°57' E 004°10'3 5.5
2017-Sep-19 10:30N 51°59' E 004°06'2 4.6
2017-Sep-19 10:00N 51°60' E 004°03'4 7.1
2017-Sep-19 09:30N 52°02' E 004°07'4 7.3
2017-Sep-19 09:00N 52°05' E 004°11'3 6.0
2017-Sep-19 08:30N 52°06' E 004°16'0 0.0
2017-Sep-19 08:00N 52°06' E 004°16'0 0.0
2017-Sep-19 07:30N 52°06' E 004°16'0 0.0
2017-Sep-19 07:00N 52°06' E 004°16'0 0.0
2017-Sep-19 06:30N 52°06' E 004°16'0 0.0
2017-Sep-19 06:00N 52°06' E 004°16'0 0.0
2017-Sep-19 05:30N 52°06' E 004°16'0 0.0
2017-Sep-19 05:00N 52°06' E 004°16'0 0.0
2017-Sep-19 04:30N 52°06' E 004°16'0 0.0
2017-Sep-19 04:00N 52°06' E 004°16'0 0.0
2017-Sep-19 03:30N 52°06' E 004°16'0 0.0
2017-Sep-19 03:00N 52°06' E 004°16'0 0.0
2017-Sep-19 02:30N 52°06' E 004°16'0 0.0
2017-Sep-19 02:00N 52°06' E 004°16'0 0.0
2017-Sep-19 01:30N 52°06' E 004°16'0 0.0
2017-Sep-19 01:00N 52°06' E 004°16'0 0.0
2017-Sep-19 00:30N 52°06' E 004°16'0 0.0
2017-Sep-19 00:00N 52°06' E 004°16'0 0.0
2017-Sep-18 23:30N 52°06' E 004°16'0 0.0
2017-Sep-18 23:00N 52°06' E 004°16'0 0.0
2017-Sep-18 22:30N 52°06' E 004°16'0 0.0
2017-Sep-18 22:00N 52°06' E 004°16'0 0.0
2017-Sep-18 21:30N 52°06' E 004°16'0 0.0
2017-Sep-18 21:00N 52°06' E 004°16'0 0.0
2017-Sep-18 20:30N 52°06' E 004°16'0 0.0
2017-Sep-18 20:00N 52°06' E 004°16'0 0.0
2017-Sep-18 19:30N 52°06' E 004°16'0 0.0
2017-Sep-18 19:00N 52°06' E 004°16'0 0.0
2017-Sep-18 18:30N 52°06' E 004°16'0 0.0
2017-Sep-18 18:00N 52°06' E 004°16'0 0.0
2017-Sep-18 17:30N 52°06' E 004°16'0 0.0
2017-Sep-18 17:00N 52°06' E 004°16'0 0.0
2017-Sep-18 16:29N 52°06' E 004°16'0 0.0
2017-Sep-18 15:59N 52°06' E 004°16'0 0.0
2017-Sep-18 15:29N 52°06' E 004°16'0 0.0
2017-Sep-18 14:59N 52°06' E 004°16'0 0.0
2017-Sep-18 14:29N 52°06' E 004°16'0 0.0
2017-Sep-18 13:56N 52°06' E 004°16'0 0.0
2017-Sep-18 13:30N 52°06' E 004°16'1 1.2
2017-Sep-18 13:00N 52°06' E 004°15'3 5.7
2017-Sep-18 12:30N 52°05' E 004°11'3 5.7
2017-Sep-18 12:00N 52°03' E 004°08'3 5.1
2017-Sep-18 11:30N 52°01' E 004°05'2 3.9
2017-Sep-18 11:00N 51°59' E 004°04'3 6.6
2017-Sep-18 10:30N 51°58' E 004°09'3 6.9
2017-Sep-18 10:00N 51°56' E 004°13'4 7.2
2017-Sep-18 09:30N 51°54' E 004°18'3 6.3
2017-Sep-18 09:00N 51°54' E 004°23'3 6.6
2017-Sep-18 08:30N 51°54' E 004°29'0 0.4
2017-Sep-18 07:59N 51°54' E 004°29'0 0.0
2017-Sep-18 07:26N 51°54' E 004°29'0 0.0
2017-Sep-18 06:59N 51°54' E 004°29'0 0.0
2017-Sep-18 06:29N 51°54' E 004°29'0 0.0
2017-Sep-18 05:59N 51°54' E 004°29'0 0.0
2017-Sep-18 05:30N 51°54' E 004°29'0 0.0
2017-Sep-18 04:59N 51°54' E 004°29'0 0.0
2017-Sep-18 04:29N 51°54' E 004°29'0 0.0
2017-Sep-18 03:59N 51°54' E 004°29'0 0.0
2017-Sep-18 03:26N 51°54' E 004°29'0 0.0
2017-Sep-18 02:59N 51°54' E 004°29'0 0.0
2017-Sep-18 02:29N 51°54' E 004°29'0 0.0
2017-Sep-18 01:59N 51°54' E 004°29'0 0.0
2017-Sep-18 01:29N 51°54' E 004°29'0 0.0
2017-Sep-18 00:59N 51°54' E 004°29'0 0.0
2017-Sep-18 00:29N 51°54' E 004°29'0 0.0
2017-Sep-17 23:59N 51°54' E 004°29'0 0.0
2017-Sep-17 23:29N 51°54' E 004°29'0 0.0
2017-Sep-17 22:59N 51°54' E 004°29'0 0.0
2017-Sep-17 22:29N 51°54' E 004°29'0 0.0
2017-Sep-17 21:59N 51°54' E 004°29'0 0.0
2017-Sep-17 21:29N 51°54' E 004°29'0 0.0
2017-Sep-17 20:59N 51°54' E 004°29'0 0.0
2017-Sep-17 20:29N 51°54' E 004°29'0 0.0
2017-Sep-17 19:59N 51°54' E 004°29'0 0.0
2017-Sep-17 19:29N 51°54' E 004°29'0 0.0
2017-Sep-17 18:59N 51°54' E 004°29'0 0.2
2017-Sep-17 18:31N 51°54' E 004°29'1 1.7
2017-Sep-17 18:00N 51°54' E 004°28'0 0.0
2017-Sep-17 17:30N 51°54' E 004°28'0 0.0
2017-Sep-17 17:00N 51°54' E 004°28'0 0.0
2017-Sep-17 16:30N 51°54' E 004°28'1 2.0
2017-Sep-17 16:00N 51°54' E 004°26'2 3.6
2017-Sep-17 15:30N 51°54' E 004°23'2 4.7
2017-Sep-17 15:00N 51°54' E 004°19'2 4.8
2017-Sep-17 14:30N 51°54' E 004°16'2 4.9
2017-Sep-17 14:00N 51°56' E 004°13'3 5.6
2017-Sep-17 13:30N 51°58' E 004°09'3 6.6
2017-Sep-17 13:01N 51°59' E 004°04'1 2.8
2017-Sep-17 12:31N 52°00' E 004°05'1 2.0
2017-Sep-17 12:01N 52°01' E 004°04'1 1.2
2017-Sep-17 11:30N 52°01' E 004°04'1 1.8
2017-Sep-17 11:00N 52°00' E 004°03'1 1.1
2017-Sep-17 10:31N 51°60' E 004°03'4 7.7
2017-Sep-17 10:00N 51°58' E 004°08'4 8.5
2017-Sep-17 09:31N 51°55' E 004°14'4 8.3
2017-Sep-17 09:01N 51°54' E 004°20'4 7.8
2017-Sep-17 08:30N 51°54' E 004°26'1 1.2
2017-Sep-17 07:55N 51°54' E 004°28'0 0.0
2017-Sep-17 07:28N 51°54' E 004°28'0 0.0
2017-Sep-17 06:58N 51°54' E 004°28'0 0.0
2017-Sep-17 06:28N 51°54' E 004°28'0 0.0
2017-Sep-17 05:58N 51°54' E 004°28'0 0.0
2017-Sep-17 05:24N 51°54' E 004°28'0 0.0
2017-Sep-17 05:01N 51°54' E 004°28'0 0.0
2017-Sep-17 04:30N 51°54' E 004°28'0 0.0
2017-Sep-17 04:00N 51°54' E 004°28'0 0.0
2017-Sep-17 03:30N 51°54' E 004°28'0 0.0
2017-Sep-17 02:58N 51°54' E 004°28'0 0.0
2017-Sep-17 02:30N 51°54' E 004°28'0 0.0
2017-Sep-17 02:00N 51°54' E 004°28'0 0.0
2017-Sep-17 01:30N 51°54' E 004°28'0 0.0
2017-Sep-17 01:00N 51°54' E 004°28'0 0.0
2017-Sep-17 00:30N 51°54' E 004°28'0 0.0
2017-Sep-17 00:00N 51°54' E 004°28'0 0.0
2017-Sep-16 23:30N 51°54' E 004°28'0 0.0
2017-Sep-16 23:00N 51°54' E 004°28'0 0.0
2017-Sep-16 22:30N 51°54' E 004°28'0 0.0
2017-Sep-16 22:00N 51°54' E 004°28'0 0.0
2017-Sep-16 21:30N 51°54' E 004°28'0 0.0
2017-Sep-16 21:00N 51°54' E 004°28'0 0.0
2017-Sep-16 20:30N 51°54' E 004°28'0 0.0
2017-Sep-16 19:57N 51°54' E 004°28'0 0.0
2017-Sep-16 19:30N 51°54' E 004°28'0 0.0
2017-Sep-16 18:57N 51°54' E 004°28'0 0.0
2017-Sep-16 18:30N 51°54' E 004°28'1 1.3
2017-Sep-16 18:00N 51°54' E 004°26'3 6.8
2017-Sep-16 17:31N 51°54' E 004°21'0 0.2
2017-Sep-16 17:00N 51°54' E 004°21'2 4.7
2017-Sep-16 16:30N 51°54' E 004°17'3 5.1
2017-Sep-16 16:00N 51°55' E 004°14'2 4.9
2017-Sep-16 15:30N 51°57' E 004°11'2 4.3
2017-Sep-16 15:00N 51°58' E 004°08'2 4.7
2017-Sep-16 14:30N 51°59' E 004°04'2 3.9
2017-Sep-16 14:00N 52°01' E 004°05'2 4.9
2017-Sep-16 13:30N 52°03' E 004°07'2 4.4
2017-Sep-16 13:00N 52°04' E 004°04'2 5.0
2017-Sep-16 12:30N 52°05' E 003°60'1 2.4
2017-Sep-16 12:00N 52°03' E 003°60'2 4.3
2017-Sep-16 11:30N 52°02' E 004°02'1 2.4
2017-Sep-16 11:01N 52°01' E 004°04'2 3.3
2017-Sep-16 10:30N 51°59' E 004°04'3 7.0
2017-Sep-16 10:00N 51°58' E 004°09'4 7.0
2017-Sep-16 09:30N 51°56' E 004°14'4 7.2
2017-Sep-16 09:00N 51°54' E 004°19'1 2.6
2017-Sep-16 08:30N 51°54' E 004°21'0 0.0
2017-Sep-16 08:00N 51°54' E 004°21'0 0.0
2017-Sep-16 07:30N 51°54' E 004°21'0 0.0
2017-Sep-16 07:00N 51°54' E 004°21'0 0.0
2017-Sep-16 06:30N 51°54' E 004°21'2 3.9
2017-Sep-16 06:00N 51°54' E 004°24'2 4.6
2017-Sep-16 05:30N 51°54' E 004°28'0 0.0
2017-Sep-16 04:58N 51°54' E 004°28'0 0.0
2017-Sep-16 04:29N 51°54' E 004°28'0 0.0
2017-Sep-16 03:58N 51°54' E 004°28'0 0.0
2017-Sep-16 03:29N 51°54' E 004°28'0 0.0
2017-Sep-16 02:58N 51°54' E 004°28'0 0.0
2017-Sep-16 02:28N 51°54' E 004°28'0 0.0
2017-Sep-16 01:59N 51°54' E 004°28'0 0.0
2017-Sep-16 01:29N 51°54' E 004°28'0 0.0
2017-Sep-16 00:58N 51°54' E 004°28'0 0.0
2017-Sep-16 00:29N 51°54' E 004°28'0 0.0
2017-Sep-15 23:58N 51°54' E 004°28'0 0.0
2017-Sep-15 23:28N 51°54' E 004°28'0 0.0
2017-Sep-15 22:58N 51°54' E 004°28'0 0.0
2017-Sep-15 22:29N 51°54' E 004°28'0 0.0
2017-Sep-15 21:58N 51°54' E 004°28'0 0.0
2017-Sep-15 21:29N 51°54' E 004°28'0 0.0
2017-Sep-15 20:58N 51°54' E 004°28'0 0.0
2017-Sep-15 20:28N 51°54' E 004°28'0 0.0
2017-Sep-15 19:58N 51°54' E 004°28'0 0.0
2017-Sep-15 19:28N 51°54' E 004°28'0 0.0
2017-Sep-15 18:58N 51°54' E 004°28'0 0.0
2017-Sep-15 18:28N 51°54' E 004°28'0 0.0
2017-Sep-15 17:58N 51°54' E 004°28'0 0.0
2017-Sep-15 17:26N 51°54' E 004°28'0 0.0
2017-Sep-15 16:59N 51°54' E 004°28'0 0.0
2017-Sep-15 16:29N 51°54' E 004°28'0 0.0
2017-Sep-15 15:58N 51°54' E 004°28'0 0.0
2017-Sep-15 15:16N 51°54' E 004°28'0 0.0
2017-Sep-15 14:59N 51°54' E 004°28'0 0.0
2017-Sep-15 14:28N 51°54' E 004°28'0 0.0
2017-Sep-15 13:59N 51°54' E 004°28'0 0.0
2017-Sep-15 13:29N 51°54' E 004°28'0 0.0
2017-Sep-15 12:56N 51°54' E 004°28'0 0.0
2017-Sep-15 12:29N 51°54' E 004°28'0 0.0
2017-Sep-15 11:58N 51°54' E 004°28'0 0.0
2017-Sep-15 11:28N 51°54' E 004°28'0 0.0
2017-Sep-15 10:58N 51°54' E 004°28'0 0.0
2017-Sep-15 10:29N 51°54' E 004°28'0 0.0
2017-Sep-15 09:59N 51°54' E 004°28'0 0.0
2017-Sep-15 09:28N 51°54' E 004°28'0 0.0
2017-Sep-15 08:58N 51°54' E 004°28'0 0.0
2017-Sep-15 08:27N 51°54' E 004°28'0 0.0
2017-Sep-15 08:00N 51°54' E 004°28'0 0.0
2017-Sep-15 07:28N 51°54' E 004°28'0 0.0
2017-Sep-15 07:00N 51°54' E 004°28'0 0.0
2017-Sep-15 06:28N 51°54' E 004°28'0 0.0
2017-Sep-15 05:57N 51°54' E 004°28'0 0.0
2017-Sep-15 05:27N 51°54' E 004°28'0 0.0
2017-Sep-15 04:58N 51°54' E 004°28'0 0.0
2017-Sep-15 04:30N 51°54' E 004°28'0 0.0
2017-Sep-15 04:00N 51°54' E 004°28'0 0.0
2017-Sep-15 03:30N 51°54' E 004°28'0 0.0
2017-Sep-15 03:00N 51°54' E 004°28'0 0.0
2017-Sep-15 02:27N 51°54' E 004°28'0 0.0
2017-Sep-15 02:00N 51°54' E 004°28'0 0.0
2017-Sep-15 01:30N 51°54' E 004°28'0 0.0
2017-Sep-15 01:00N 51°54' E 004°28'0 0.0
2017-Sep-15 00:27N 51°54' E 004°28'0 0.0
2017-Sep-15 00:00N 51°54' E 004°28'0 0.0
2017-Sep-14 23:30N 51°54' E 004°28'0 0.0
2017-Sep-14 22:57N 51°54' E 004°28'0 0.0
2017-Sep-14 22:30N 51°54' E 004°28'0 0.0
2017-Sep-14 22:00N 51°54' E 004°28'0 0.0
2017-Sep-14 21:28N 51°54' E 004°28'0 0.0
2017-Sep-14 20:58N 51°54' E 004°28'0 0.0
2017-Sep-14 20:24N 51°54' E 004°28'0 0.0
2017-Sep-14 19:54N 51°54' E 004°28'0 0.0
2017-Sep-14 19:28N 51°54' E 004°28'0 0.0
2017-Sep-14 18:55N 51°54' E 004°28'0 0.0
2017-Sep-14 18:30N 51°54' E 004°28'0 0.0
2017-Sep-14 17:58N 51°54' E 004°28'0 0.1
2017-Sep-14 17:30N 51°54' E 004°28'1 2.6
2017-Sep-14 17:00N 51°54' E 004°25'2 3.3
2017-Sep-14 16:30N 51°54' E 004°23'3 5.2
2017-Sep-14 16:00N 51°54' E 004°19'1 1.2
2017-Sep-14 15:30N 51°54' E 004°18'2 4.6
2017-Sep-14 15:00N 51°54' E 004°21'2 4.7
2017-Sep-14 14:30N 51°54' E 004°25'2 3.0
2017-Sep-14 14:00N 51°54' E 004°28'0 0.0
2017-Sep-14 13:30N 51°54' E 004°28'0 0.0
2017-Sep-14 13:00N 51°54' E 004°28'0 0.0
2017-Sep-14 12:29N 51°54' E 004°28'0 0.0
2017-Sep-14 11:59N 51°54' E 004°28'0 0.0
2017-Sep-14 11:27N 51°54' E 004°28'0 0.0
2017-Sep-14 10:56N 51°54' E 004°28'0 0.0
2017-Sep-14 10:30N 51°54' E 004°28'0 0.0
2017-Sep-14 10:00N 51°54' E 004°28'0 0.0
2017-Sep-14 09:30N 51°54' E 004°28'0 0.0
2017-Sep-14 09:00N 51°54' E 004°28'0 0.0
2017-Sep-14 08:30N 51°54' E 004°28'0 0.0
2017-Sep-14 08:00N 51°54' E 004°28'0 0.0
2017-Sep-14 07:30N 51°54' E 004°28'0 0.0
2017-Sep-14 07:00N 51°54' E 004°28'0 0.0
2017-Sep-14 06:30N 51°54' E 004°28'0 0.0
2017-Sep-14 06:00N 51°54' E 004°28'0 0.0
2017-Sep-14 05:30N 51°54' E 004°28'0 0.0
2017-Sep-14 05:00N 51°54' E 004°28'0 0.0
2017-Sep-14 04:30N 51°54' E 004°28'0 0.0
2017-Sep-14 04:00N 51°54' E 004°28'0 0.0
2017-Sep-14 03:30N 51°54' E 004°28'0 0.0
2017-Sep-14 03:00N 51°54' E 004°28'0 0.0
2017-Sep-14 02:30N 51°54' E 004°28'0 0.0
2017-Sep-14 02:00N 51°54' E 004°28'0 0.0
2017-Sep-14 01:30N 51°54' E 004°28'0 0.0
2017-Sep-14 01:00N 51°54' E 004°28'0 0.0
2017-Sep-14 00:30N 51°54' E 004°28'0 0.0
2017-Sep-14 00:00N 51°54' E 004°28'0 0.0
2017-Sep-13 23:30N 51°54' E 004°28'0 0.0
2017-Sep-13 23:00N 51°54' E 004°28'0 0.0
2017-Sep-13 22:30N 51°54' E 004°28'0 0.0
2017-Sep-13 22:00N 51°54' E 004°28'0 0.0
2017-Sep-13 21:30N 51°54' E 004°28'0 0.0
2017-Sep-13 21:00N 51°54' E 004°28'0 0.0
2017-Sep-13 20:30N 51°54' E 004°28'0 0.0
2017-Sep-13 20:00N 51°54' E 004°28'0 0.0
2017-Sep-13 19:30N 51°54' E 004°28'0 0.0
2017-Sep-13 19:00N 51°54' E 004°28'0 0.0
2017-Sep-13 18:30N 51°54' E 004°28'0 0.0
2017-Sep-13 18:00N 51°54' E 004°28'0 0.0
2017-Sep-13 17:30N 51°54' E 004°28'0 0.0
2017-Sep-13 17:00N 51°54' E 004°28'0 0.0
2017-Sep-13 16:30N 51°54' E 004°28'0 0.0
2017-Sep-13 15:59N 51°54' E 004°28'0 0.0
2017-Sep-13 15:30N 51°54' E 004°28'0 0.0
2017-Sep-13 15:00N 51°54' E 004°28'0 0.0
2017-Sep-13 14:30N 51°54' E 004°28'0 0.0
2017-Sep-13 14:00N 51°54' E 004°28'0 0.0
2017-Sep-13 13:29N 51°54' E 004°28'0 0.0
2017-Sep-13 13:00N 51°54' E 004°28'0 0.0
2017-Sep-13 12:30N 51°54' E 004°28'0 0.0
2017-Sep-13 12:00N 51°54' E 004°28'0 0.0
2017-Sep-13 11:30N 51°54' E 004°28'0 0.0
2017-Sep-13 11:00N 51°54' E 004°28'0 0.0
2017-Sep-13 10:30N 51°54' E 004°28'0 0.0
2017-Sep-13 10:00N 51°54' E 004°28'0 0.0
2017-Sep-13 09:30N 51°54' E 004°28'0 0.0
2017-Sep-13 08:59N 51°54' E 004°28'0 0.0
2017-Sep-13 08:30N 51°54' E 004°28'0 0.0
2017-Sep-13 08:00N 51°54' E 004°28'0 0.0
2017-Sep-13 07:30N 51°54' E 004°28'0 0.0
2017-Sep-13 07:00N 51°54' E 004°28'0 0.0
2017-Sep-13 06:30N 51°54' E 004°28'0 0.0
2017-Sep-13 06:00N 51°54' E 004°28'0 0.0
2017-Sep-13 05:30N 51°54' E 004°28'0 0.0
2017-Sep-13 05:00N 51°54' E 004°28'0 0.0
2017-Sep-13 04:30N 51°54' E 004°28'0 0.0
2017-Sep-13 04:00N 51°54' E 004°28'0 0.0
2017-Sep-13 03:30N 51°54' E 004°28'0 0.0
2017-Sep-13 03:00N 51°54' E 004°28'0 0.0
2017-Sep-13 02:30N 51°54' E 004°28'0 0.0
2017-Sep-13 02:00N 51°54' E 004°28'0 0.0
2017-Sep-13 01:30N 51°54' E 004°28'0 0.0
2017-Sep-13 01:00N 51°54' E 004°28'0 0.0
2017-Sep-13 00:30N 51°54' E 004°28'0 0.0
2017-Sep-13 00:00N 51°54' E 004°28'0 0.0
2017-Sep-12 23:30N 51°54' E 004°28'0 0.0
2017-Sep-12 23:00N 51°54' E 004°28'0 0.0
2017-Sep-12 22:30N 51°54' E 004°28'0 0.0
2017-Sep-12 22:00N 51°54' E 004°28'0 0.0
2017-Sep-12 21:30N 51°54' E 004°28'0 0.0
2017-Sep-12 21:00N 51°54' E 004°28'0 0.0
2017-Sep-12 20:29N 51°54' E 004°28'0 0.0
2017-Sep-12 20:00N 51°54' E 004°28'0 0.0
2017-Sep-12 19:30N 51°54' E 004°28'0 0.0
2017-Sep-12 19:00N 51°54' E 004°28'0 0.0
2017-Sep-12 18:30N 51°54' E 004°28'0 0.0
2017-Sep-12 18:00N 51°54' E 004°28'0 0.0
2017-Sep-12 17:30N 51°54' E 004°28'0 0.0
2017-Sep-12 17:00N 51°54' E 004°28'0 0.0
2017-Sep-12 16:30N 51°54' E 004°28'0 0.0
2017-Sep-12 16:00N 51°54' E 004°28'0 0.0
2017-Sep-12 15:30N 51°54' E 004°28'0 0.0
2017-Sep-12 15:00N 51°54' E 004°28'0 0.0
2017-Sep-12 14:31N 51°54' E 004°28'0 0.0
2017-Sep-12 14:00N 51°54' E 004°28'0 0.0
2017-Sep-12 13:30N 51°54' E 004°28'0 0.2
2017-Sep-12 13:00N 51°54' E 004°28'3 5.0
2017-Sep-12 12:30N 51°54' E 004°23'3 5.8
2017-Sep-12 12:00N 51°54' E 004°19'2 4.6
2017-Sep-12 11:30N 51°54' E 004°15'2 3.4
2017-Sep-12 11:00N 51°56' E 004°13'2 3.5
2017-Sep-12 10:30N 51°57' E 004°11'2 3.6
2017-Sep-12 10:00N 51°58' E 004°09'2 4.8
2017-Sep-12 09:30N 51°59' E 004°05'2 4.3
2017-Sep-12 09:00N 52°00' E 004°03'3 5.3
2017-Sep-12 08:30N 52°02' E 004°06'2 4.6
2017-Sep-12 08:00N 52°04' E 004°08'2 4.1
2017-Sep-12 07:30N 52°05' E 004°11'2 3.3
2017-Sep-12 07:00N 52°06' E 004°13'1 3.0
2017-Sep-12 06:30N 52°07' E 004°14'2 3.4
2017-Sep-12 06:00N 52°06' E 004°16'0 0.0
2017-Sep-12 05:30N 52°06' E 004°16'0 0.0
2017-Sep-12 05:00N 52°06' E 004°16'0 0.0
2017-Sep-12 04:30N 52°06' E 004°16'0 0.0
2017-Sep-12 04:00N 52°06' E 004°16'0 0.0
2017-Sep-12 03:30N 52°06' E 004°16'0 0.0
2017-Sep-12 03:00N 52°06' E 004°16'0 0.0
2017-Sep-12 02:30N 52°06' E 004°16'0 0.0
2017-Sep-12 02:00N 52°06' E 004°16'  

Dump ship's entire track history